createdAt,value
2019-05-02T00:02:12.810Z,100041.39
2019-05-02T00:04:44.140Z,100025.52
2019-05-02T00:07:19.887Z,100013.25
2019-05-02T00:09:50.422Z,100017.47
2019-05-02T00:12:23.879Z,100024.01
2019-05-02T00:14:56.488Z,100027.25
2019-05-02T00:17:30.742Z,100014.97
2019-05-02T00:20:03.340Z,100012.70
2019-05-02T00:22:34.473Z,100003.55
2019-05-02T00:25:11.144Z,100014.21
2019-05-02T00:27:42.839Z,100003.64
2019-05-02T00:30:16.078Z,99987.78
2019-05-02T00:32:47.149Z,99994.60
2019-05-02T00:35:19.707Z,99989.79
2019-05-02T00:37:50.774Z,99998.22
2019-05-02T00:40:25.572Z,99986.80
2019-05-02T00:42:58.234Z,99977.65
2019-05-02T00:45:28.380Z,99970.95
2019-05-02T00:48:01.006Z,99964.22
2019-05-02T00:50:40.443Z,99967.58
2019-05-02T00:53:13.587Z,99956.16
2019-05-02T00:55:46.360Z,99967.45
2019-05-02T00:58:18.386Z,99962.89
2019-05-02T01:01:07.863Z,99956.29
2019-05-02T01:03:42.533Z,99955.91
2019-05-02T01:06:15.620Z,99948.83
2019-05-02T01:08:46.795Z,99945.90
2019-05-02T01:11:19.481Z,99947.35
2019-05-02T01:13:55.842Z,99942.73
2019-05-02T01:16:25.008Z,99948.33
2019-05-02T01:18:56.074Z,99943.16
2019-05-02T01:21:34.103Z,99936.22
2019-05-02T01:24:03.306Z,99930.46
2019-05-02T01:26:36.944Z,99939.33
2019-05-02T01:29:29.754Z,99917.72
2019-05-02T01:32:06.041Z,99922.75
2019-05-02T01:34:54.468Z,99905.58
2019-05-02T01:37:28.130Z,99901.97
2019-05-02T01:40:00.280Z,99905.20
2019-05-02T01:42:39.618Z,99907.38
2019-05-02T01:45:06.829Z,99902.09
2019-05-02T01:47:39.288Z,99895.92
2019-05-02T01:50:10.425Z,99889.31
2019-05-02T01:52:43.073Z,99892.59
2019-05-02T01:55:16.963Z,99883.09
2019-05-02T01:57:48.840Z,99882.97
2019-05-02T02:00:19.924Z,99864.83
2019-05-02T02:02:50.982Z,99865.55
2019-05-02T02:05:27.572Z,99860.86
2019-05-02T02:07:57.489Z,99857.27
2019-05-02T02:10:28.686Z,99848.37
2019-05-02T02:13:04.900Z,99850.45
2019-05-02T02:15:32.552Z,99848.84
2019-05-02T02:18:03.622Z,99846.67
2019-05-02T02:20:45.181Z,99839.45
2019-05-02T02:23:23.901Z,99834.04
2019-05-02T02:26:14.926Z,99842.94
2019-05-02T02:28:47.559Z,99839.20
2019-05-02T02:31:21.250Z,99829.48
2019-05-02T02:33:53.947Z,99819.52
2019-05-02T02:36:31.514Z,99821.53
2019-05-02T02:38:59.329Z,99813.39
2019-05-02T02:41:30.399Z,99819.36
2019-05-02T02:44:05.745Z,99827.28
2019-05-02T02:46:40.385Z,99812.16
2019-05-02T02:49:13.864Z,99802.08
2019-05-02T02:51:44.853Z,99807.79
2019-05-02T02:54:16.839Z,99813.63
2019-05-02T02:56:49.596Z,99803.83
2019-05-02T02:59:26.232Z,99800.19
2019-05-02T03:01:55.095Z,99800.87
2019-05-02T03:04:26.196Z,99802.91
2019-05-02T03:06:57.387Z,99788.05
2019-05-02T03:09:30.197Z,99800.18
2019-05-02T03:12:21.007Z,99795.16
2019-05-02T03:14:53.635Z,99797.75
2019-05-02T03:17:25.965Z,99792.95
2019-05-02T03:20:00.993Z,99786.64
2019-05-02T03:22:34.837Z,99791.79
2019-05-02T03:25:08.877Z,99786.73
2019-05-02T03:27:40.513Z,99788.98
2019-05-02T03:30:29.662Z,99785.84
2019-05-02T03:33:02.835Z,99785.45
2019-05-02T03:35:40.152Z,99778.48
2019-05-02T03:37:54.002Z,99777.29
2019-05-02T03:40:25.027Z,99781.03
2019-05-02T03:42:56.804Z,99780.31
2019-05-02T03:45:32.353Z,99779.80
2019-05-02T03:48:02.642Z,99772.86
2019-05-02T03:50:35.431Z,99774.05
2019-05-02T03:53:06.670Z,99770.98
2019-05-02T03:55:37.709Z,99776.05
2019-05-02T03:58:14.053Z,99780.00
2019-05-02T04:00:41.751Z,99780.98
2019-05-02T04:03:12.819Z,99774.22
2019-05-02T04:05:44.072Z,99771.96
2019-05-02T04:08:20.721Z,99770.77
2019-05-02T04:11:08.165Z,99773.28
2019-05-02T04:13:39.216Z,99769.06
2019-05-02T04:16:15.375Z,99772.21
2019-05-02T04:18:54.753Z,99768.00
2019-05-02T04:21:24.277Z,99769.20
2019-05-02T04:23:50.596Z,99766.55
2019-05-02T04:26:21.691Z,99760.12
2019-05-02T04:28:55.935Z,99760.47
2019-05-02T04:31:31.592Z,99755.56
2019-05-02T04:34:14.189Z,99751.34
2019-05-02T04:36:36.738Z,99743.21
2019-05-02T04:39:14.269Z,99748.70
2019-05-02T04:41:42.521Z,99724.39
2019-05-02T04:44:13.260Z,99736.73
2019-05-02T04:46:44.307Z,99746.12
2019-05-02T04:49:20.132Z,99735.80
2019-05-02T04:51:59.873Z,99735.80
2019-05-02T04:54:26.254Z,99730.88
2019-05-02T04:56:55.453Z,99734.72
2019-05-02T04:59:28.429Z,99733.99
2019-05-02T05:02:01.271Z,99724.41
2019-05-02T05:04:42.292Z,99722.72
2019-05-02T05:07:05.465Z,99716.61
2019-05-02T05:09:39.727Z,99714.09
2019-05-02T05:12:09.258Z,99729.31
2019-05-02T05:14:43.268Z,99725.23
2019-05-02T05:17:13.477Z,99724.41
2019-05-02T05:19:44.578Z,99707.47
2019-05-02T05:22:18.258Z,99703.53
2019-05-02T05:24:50.449Z,99699.08
2019-05-02T05:27:22.932Z,99697.54
2019-05-02T05:29:59.479Z,99698.86
2019-05-02T05:32:28.241Z,99682.52
2019-05-02T05:35:03.522Z,99690.20
2019-05-02T05:37:34.574Z,99689.00
2019-05-02T05:40:08.394Z,99689.00
2019-05-02T05:42:39.525Z,99690.56
2019-05-02T05:45:13.954Z,99694.99
2019-05-02T05:47:45.330Z,99691.41
2019-05-02T05:50:17.740Z,99691.91
2019-05-02T05:52:51.755Z,99694.55
2019-05-02T05:55:24.352Z,99690.47
2019-05-02T05:58:01.781Z,99702.71
2019-05-02T06:00:29.317Z,99687.44
2019-05-02T06:03:09.967Z,99690.81
2019-05-02T06:05:38.451Z,99686.84
2019-05-02T06:08:08.182Z,99690.31
2019-05-02T06:10:43.891Z,99685.86
2019-05-02T06:13:12.943Z,99691.23
2019-05-02T06:15:45.948Z,99683.48
2019-05-02T06:18:16.825Z,99684.05
2019-05-02T06:20:48.408Z,99688.86
2019-05-02T06:23:19.530Z,99685.49
2019-05-02T06:25:52.180Z,99678.78
2019-05-02T06:28:26.265Z,99670.28
2019-05-02T06:31:02.207Z,99681.28
2019-05-02T06:33:34.153Z,99685.72
2019-05-02T06:36:06.326Z,99685.24
2019-05-02T06:38:37.369Z,99681.50
2019-05-02T06:41:08.445Z,99680.19
2019-05-02T06:43:41.240Z,99686.47
2019-05-02T06:46:16.368Z,99684.77
2019-05-02T06:48:48.168Z,99682.38
2019-05-02T06:51:20.865Z,99672.55
2019-05-02T06:53:52.224Z,99690.89
2019-05-02T06:56:26.501Z,99679.66
2019-05-02T06:58:57.612Z,99674.47
2019-05-02T07:01:28.681Z,99673.77
2019-05-02T07:03:59.716Z,99678.09
2019-05-02T07:06:40.006Z,99673.30
2019-05-02T07:09:05.183Z,99677.98
2019-05-02T07:11:38.951Z,99660.47
2019-05-02T07:14:13.412Z,99677.98
2019-05-02T07:16:54.646Z,99667.20
2019-05-02T07:19:29.172Z,99658.30
2019-05-02T07:22:04.239Z,99659.16
2019-05-02T07:24:35.624Z,99651.34
2019-05-02T07:27:06.703Z,99640.65
2019-05-02T07:29:40.764Z,99639.20
2019-05-02T07:32:11.868Z,99645.20
2019-05-02T07:34:48.266Z,99633.05
2019-05-02T07:37:17.351Z,99656.73
2019-05-02T07:39:49.906Z,99634.41
2019-05-02T07:42:20.985Z,99632.81
2019-05-02T07:44:52.090Z,99638.47
2019-05-02T07:47:23.372Z,99643.28
2019-05-02T07:49:54.514Z,99653.55
2019-05-02T07:52:28.893Z,99632.72
2019-05-02T07:55:01.159Z,99639.66
2019-05-02T07:57:33.898Z,99634.93
2019-05-02T08:00:10.395Z,99645.44
2019-05-02T08:02:41.511Z,99638.19
2019-05-02T08:05:15.784Z,99634.63
2019-05-02T08:07:46.810Z,99645.48
2019-05-02T08:10:22.209Z,99638.50
2019-05-02T08:12:52.707Z,99637.19
2019-05-02T08:15:24.935Z,99640.27
2019-05-02T08:17:57.203Z,99640.60
2019-05-02T08:20:29.732Z,99638.88
2019-05-02T08:23:01.846Z,99647.53
2019-05-02T08:25:33.058Z,99645.13
2019-05-02T08:28:10.046Z,99630.31
2019-05-02T08:30:44.408Z,99632.97
2019-05-02T08:33:15.443Z,99617.99
2019-05-02T08:35:48.871Z,99632.11
2019-05-02T08:38:20.865Z,99631.94
2019-05-02T08:40:54.907Z,99630.03
2019-05-02T08:43:26.245Z,99620.78
2019-05-02T08:45:57.467Z,99633.55
2019-05-02T08:48:28.723Z,99638.11
2019-05-02T08:50:59.895Z,99629.45
2019-05-02T08:53:32.640Z,99635.48
2019-05-02T08:56:03.721Z,99625.29
2019-05-02T08:58:36.623Z,99628.91
2019-05-02T09:01:09.193Z,99631.70
2019-05-02T09:03:54.677Z,99644.69
2019-05-02T09:06:17.212Z,99648.12
2019-05-02T09:08:51.430Z,99652.98
2019-05-02T09:11:21.062Z,99648.04
2019-05-02T09:13:53.817Z,99659.30
2019-05-02T09:16:28.807Z,99658.34
2019-05-02T09:18:58.339Z,99658.80
2019-05-02T09:21:32.195Z,99654.20
2019-05-02T09:24:03.831Z,99662.95
2019-05-02T09:26:38.798Z,99655.04
2019-05-02T09:29:10.311Z,99643.55
2019-05-02T09:31:45.869Z,99622.20
2019-05-02T09:34:17.042Z,99655.59
2019-05-02T09:36:49.475Z,99649.84
2019-05-02T09:39:22.671Z,99647.56
2019-05-02T09:41:53.992Z,99657.55
2019-05-02T09:44:25.279Z,99659.78
2019-05-02T09:46:57.605Z,99647.59
2019-05-02T09:49:33.435Z,99654.91
2019-05-02T09:52:23.809Z,99651.77
2019-05-02T09:54:48.558Z,99655.34
2019-05-02T10:00:36.143Z,99651.50
2019-05-02T10:03:07.081Z,99651.34
2019-05-02T10:05:55.553Z,99647.34
2019-05-02T10:08:16.445Z,99660.21
2019-05-02T10:11:02.828Z,99644.00
2019-05-02T10:13:42.446Z,99643.35
2019-05-02T10:16:12.277Z,99653.38
2019-05-02T10:18:52.283Z,99659.02
2019-05-02T10:21:33.925Z,99665.86
2019-05-02T10:24:03.719Z,99660.13
2019-05-02T10:26:42.639Z,99658.35
2019-05-02T10:29:15.591Z,99673.63
2019-05-02T10:55:43.805Z,99683.35
2019-05-02T11:06:13.481Z,99679.80
2019-05-02T11:27:34.724Z,99667.62
2019-05-02T11:37:33.199Z,99683.52
2019-05-02T11:40:12.790Z,99700.86
2019-05-02T11:42:57.224Z,99681.41
2019-05-02T11:45:26.300Z,99689.17
2019-05-02T11:48:09.049Z,99675.84
2019-05-02T11:50:58.019Z,99688.38
2019-05-02T11:53:29.390Z,99691.66
2019-05-02T11:56:13.375Z,99667.92
2019-05-02T12:01:59.815Z,99675.56
2019-05-02T12:06:06.497Z,99682.30
2019-05-02T12:07:04.931Z,99675.00
2019-05-02T12:09:38.792Z,99668.84
2019-05-02T12:12:27.356Z,99668.22
2019-05-02T12:15:24.680Z,99674.05
2019-05-02T12:17:57.618Z,99693.08
2019-05-02T12:26:22.397Z,99688.09
2019-05-02T12:28:55.418Z,99678.36
2019-05-02T12:31:55.360Z,99700.06
2019-05-02T12:34:27.104Z,99699.94
2019-05-02T12:37:22.027Z,99701.79
2019-05-02T12:39:51.713Z,99703.87
2019-05-02T12:42:28.530Z,99699.50
2019-05-02T12:45:07.810Z,99690.11
2019-05-02T12:47:52.786Z,99698.26
2019-05-02T12:50:52.587Z,99706.99
2019-05-02T12:53:18.186Z,99709.20
2019-05-02T12:55:57.330Z,99688.63
2019-05-02T13:01:27.730Z,99698.52
2019-05-02T13:04:12.618Z,99691.68
2019-05-02T13:06:42.141Z,99703.51
2019-05-02T13:09:18.021Z,99691.05
2019-05-02T13:12:13.405Z,99703.02
2019-05-02T13:14:44.717Z,99689.73
2019-05-02T13:17:16.003Z,99686.69
2019-05-02T13:19:55.846Z,99691.80
2019-05-02T13:22:33.924Z,99688.55
2019-05-02T13:25:10.454Z,99694.81
2019-05-02T13:27:47.986Z,99688.78
2019-05-02T13:30:21.941Z,99699.35
2019-05-02T13:32:57.902Z,99705.49
2019-05-02T13:35:35.321Z,99705.49
2019-05-02T13:38:13.010Z,99698.45
2019-05-02T13:40:45.095Z,99704.90
2019-05-02T13:43:18.155Z,99697.02
2019-05-02T13:45:55.234Z,99700.00
2019-05-02T13:48:26.634Z,99702.77
2019-05-02T13:50:57.891Z,99701.15
2019-05-02T13:53:32.016Z,99700.53
2019-05-02T13:56:23.016Z,99703.72
2019-05-02T13:58:54.368Z,99695.94
2019-05-02T14:01:26.030Z,99694.13
2019-05-02T14:03:57.284Z,99691.41
2019-05-02T14:06:29.883Z,99697.88
2019-05-02T14:09:22.459Z,99709.64
2019-05-02T14:12:11.839Z,99697.27
2019-05-02T14:14:43.141Z,99705.05
2019-05-02T14:21:12.619Z,99690.38
2019-05-02T14:23:51.821Z,99689.63
2019-05-02T14:26:30.383Z,99689.03
2019-05-02T14:28:57.874Z,99700.61
2019-05-02T14:31:29.087Z,99703.19
2019-05-02T14:34:21.695Z,99703.80
2019-05-02T14:36:58.880Z,99700.27
2019-05-02T14:39:26.349Z,99695.05
2019-05-02T14:41:57.755Z,99675.55
2019-05-02T14:45:01.283Z,99683.34
2019-05-02T14:47:18.144Z,99695.86
2019-05-02T15:21:23.405Z,99690.98
2019-05-02T15:24:04.542Z,99688.25
2019-05-02T15:26:31.317Z,99702.03
2019-05-02T15:29:19.111Z,99692.97
2019-05-02T15:31:58.016Z,99685.86
2019-05-02T15:34:35.292Z,99702.91
2019-05-02T15:37:08.882Z,99688.80
2019-05-02T15:42:24.375Z,99689.09
2019-05-02T15:45:01.758Z,99693.73
2019-05-02T15:47:32.067Z,99716.98
2019-05-02T15:50:03.721Z,99701.03
2019-05-02T15:52:42.350Z,99685.97
2019-05-02T15:55:12.547Z,99688.80
2019-05-02T15:57:49.394Z,99693.20
2019-05-02T16:00:25.777Z,99702.98
2019-05-02T16:03:01.447Z,99678.73
2019-05-02T16:05:36.457Z,99699.17
2019-05-02T16:08:13.191Z,99692.69
2019-05-02T16:14:35.732Z,99695.79
2019-05-02T16:41:02.307Z,99703.72
2019-05-02T16:43:36.687Z,99730.68
2019-05-02T16:46:28.317Z,99726.34
2019-05-02T16:49:37.155Z,99726.00
2019-05-02T16:56:07.298Z,99727.78
2019-05-02T17:13:16.133Z,99729.59
2019-05-02T17:19:43.662Z,99734.93
2019-05-02T17:29:16.336Z,99715.88
2019-05-02T17:40:53.725Z,99740.18
2019-05-02T17:56:11.985Z,99743.59
2019-05-02T18:16:47.039Z,99758.48
2019-05-02T18:22:23.389Z,99770.48
2019-05-02T18:24:54.532Z,99782.35
2019-05-02T18:27:26.012Z,99783.80
2019-05-02T18:30:30.065Z,99786.17
2019-05-02T18:32:57.759Z,99784.73
2019-05-02T18:38:41.613Z,99789.99
2019-05-02T22:22:53.175Z,99787.03
2019-05-02T23:55:44.686Z,99810.28
2019-05-02T23:58:19.541Z,99815.17
